Time;durP1;ratioP1;P1;durP2;ratioP2;P2;SDS_P1;SDS_P2;PMS_P1;PMS_P2;Temp;Humidity;BMP_temperature;BMP_pressure;BME280_temperature;BME280_humidity;BME280_pressure;Samples;Min_cycle;Max_cycle;Signal;HPM_P1;HPM_P2
2024/02/28 00:03:23;;;;;;;23.13;18.60;;;0.70;99.90;;;;;;12508425;28;20037;-35
2024/02/28 00:09:25;;;;;;;26.55;20.42;;;0.70;99.90;;;;;;12513949;28;20048;-35
2024/02/28 00:15:27;;;;;;;24.48;20.30;;;0.70;99.90;;;;;;12513252;28;20048;-35
2024/02/28 00:21:29;;;;;;;29.52;22.50;;;0.60;99.90;;;;;;12506877;28;20053;-35
2024/02/28 00:27:31;;;;;;;26.88;22.67;;;0.50;99.90;;;;;;12491035;28;20122;-35
2024/02/28 00:33:33;;;;;;;28.77;21.73;;;0.50;99.90;;;;;;12501564;28;20519;-36
2024/02/28 00:39:35;;;;;;;28.73;22.10;;;0.50;99.90;;;;;;12504327;28;20053;-36
2024/02/28 00:45:37;;;;;;;28.15;23.08;;;0.50;99.90;;;;;;12509972;28;20059;-36
2024/02/28 00:51:39;;;;;;;26.38;22.25;;;0.40;99.90;;;;;;12525786;28;20136;-36
2024/02/28 00:57:41;;;;;;;28.48;20.13;;;0.30;99.90;;;;;;12516173;28;20053;-35
2024/02/28 01:03:43;;;;;;;32.97;24.08;;;0.30;99.90;;;;;;12508612;28;20065;-36
2024/02/28 01:09:45;;;;;;;33.90;24.45;;;0.40;99.90;;;;;;12509779;28;20111;-36
2024/02/28 01:15:47;;;;;;;33.13;22.48;;;0.30;99.90;;;;;;12514222;28;20128;-35
2024/02/28 01:21:49;;;;;;;32.03;23.63;;;0.30;99.90;;;;;;12506202;28;20041;-35
2024/02/28 01:27:50;;;;;;;32.78;22.75;;;0.20;99.90;;;;;;12505098;28;20488;-36
2024/02/28 01:33:52;;;;;;;31.60;22.45;;;0.30;99.90;;;;;;12519892;28;20132;-36
2024/02/28 01:39:54;;;;;;;35.42;22.05;;;0.30;99.90;;;;;;12516478;28;20062;-36
2024/02/28 01:46:00;;;;;;;34.50;24.35;;;0.20;99.90;;;;;;12520874;28;20405;-36
2024/02/28 01:52:03;;;;;;;35.08;22.63;;;0.00;99.90;;;;;;12502097;28;20049;-36
2024/02/28 01:58:06;;;;;;;32.92;22.65;;;0.10;99.90;;;;;;12506059;28;20056;-35
2024/02/28 02:04:08;;;;;;;38.10;23.70;;;0.00;99.90;;;;;;12518504;28;20604;-36
2024/02/28 02:10:12;;;;;;;40.20;23.58;;;0.10;99.90;;;;;;12505485;28;20077;-36
2024/02/28 02:16:14;;;;;;;36.55;22.02;;;0.20;99.90;;;;;;12493124;28;20053;-36
2024/02/28 02:22:16;;;;;;;35.17;21.70;;;0.10;99.90;;;;;;12513360;28;20127;-36
2024/02/28 02:28:18;;;;;;;35.58;22.25;;;0.10;99.90;;;;;;12513741;28;20073;-35
2024/02/28 02:34:20;;;;;;;35.45;22.23;;;0.10;99.90;;;;;;12506040;28;20085;-36
2024/02/28 02:40:22;;;;;;;36.75;23.85;;;0.10;99.90;;;;;;12522152;28;20060;-36
2024/02/28 02:46:24;;;;;;;38.58;24.05;;;0.00;99.90;;;;;;12525193;28;20965;-35
2024/02/28 02:52:26;;;;;;;36.15;22.45;;;0.00;99.90;;;;;;12506962;28;20048;-36
2024/02/28 02:58:27;;;;;;;38.45;24.75;;;-0.10;99.90;;;;;;12505772;28;20489;-36
2024/02/28 03:04:29;;;;;;;36.95;24.65;;;-0.10;99.90;;;;;;12519883;28;20143;-36
2024/02/28 03:10:31;;;;;;;37.13;24.75;;;-0.20;99.90;;;;;;12511226;28;20084;-35
2024/02/28 03:16:37;;;;;;;40.03;24.88;;;-0.10;99.90;;;;;;12499567;28;20183;-35
2024/02/28 03:22:39;;;;;;;56.60;23.63;;;-0.10;99.90;;;;;;12502213;28;20049;-35
2024/02/28 03:28:41;;;;;;;72.30;23.85;;;0.00;99.90;;;;;;12505489;28;20044;-35
2024/02/28 03:34:43;;;;;;;55.60;24.95;;;-0.20;99.90;;;;;;12509116;28;20058;-35
2024/02/28 03:40:45;;;;;;;50.65;24.30;;;-0.50;99.90;;;;;;12510179;28;20057;-35
2024/02/28 03:46:47;;;;;;;36.90;22.25;;;-0.50;99.90;;;;;;12454848;28;20124;-35
2024/02/28 03:52:49;;;;;;;34.53;22.00;;;-0.30;99.90;;;;;;12502732;28;20068;-35
2024/02/28 03:58:51;;;;;;;32.38;20.73;;;-0.30;99.90;;;;;;12487031;28;20081;-35
2024/02/28 04:04:53;;;;;;;47.25;23.38;;;-0.30;99.90;;;;;;12490424;28;20401;-36
2024/02/28 04:10:55;;;;;;;45.30;21.70;;;-0.60;99.90;;;;;;12503347;28;20060;-35
2024/02/28 04:16:57;;;;;;;75.40;17.42;;;-0.50;99.90;;;;;;12535841;28;20095;-36
2024/02/28 04:22:59;;;;;;;30.33;15.88;;;-0.50;99.90;;;;;;12523000;28;20041;-35
2024/02/28 04:29:04;;;;;;;52.97;17.27;;;-0.30;99.90;;;;;;12501125;28;20077;-36
2024/02/28 04:35:07;;;;;;;31.98;15.68;;;-0.30;99.90;;;;;;12479598;28;20056;-36
2024/02/28 04:41:08;;;;;;;50.83;15.82;;;-0.10;99.90;;;;;;12508943;28;20516;-35
2024/02/28 04:47:11;;;;;;;34.45;18.05;;;-0.30;99.90;;;;;;12512474;28;20090;-35
2024/02/28 04:53:13;;;;;;;35.20;16.35;;;-0.40;99.90;;;;;;12521939;28;20106;-35
2024/02/28 04:59:15;;;;;;;43.65;17.83;;;-0.50;99.90;;;;;;12528723;28;20494;-35
2024/02/28 05:05:17;;;;;;;26.45;15.43;;;-0.70;99.90;;;;;;12527965;28;20049;-35
2024/02/28 05:11:19;;;;;;;36.33;16.90;;;-0.60;99.90;;;;;;12496912;28;20057;-35
2024/02/28 05:17:21;;;;;;;28.30;15.77;;;-0.80;99.90;;;;;;12490532;28;20087;-35
2024/02/28 05:23:23;;;;;;;24.98;15.82;;;-0.70;99.90;;;;;;12481361;28;20049;-35
2024/02/28 05:29:26;;;;;;;22.77;14.88;;;-0.70;99.90;;;;;;12511924;28;20050;-35
2024/02/28 05:35:27;;;;;;;24.25;14.68;;;-0.70;99.90;;;;;;12511687;28;20064;-36
2024/02/28 05:41:29;;;;;;;25.25;14.77;;;-0.60;99.90;;;;;;12513983;28;20515;-35
2024/02/28 05:47:31;;;;;;;25.13;15.98;;;-0.60;99.90;;;;;;12509684;28;20045;-35
2024/02/28 05:53:38;;;;;;;26.88;15.45;;;-0.40;99.90;;;;;;12529365;28;20064;-35
2024/02/28 05:59:39;;;;;;;27.15;17.20;;;-0.40;99.90;;;;;;12518935;28;20045;-35
2024/02/28 06:05:41;;;;;;;26.02;15.20;;;-0.40;99.90;;;;;;12508449;28;20497;-35
2024/02/28 06:11:44;;;;;;;43.03;19.80;;;-0.20;99.90;;;;;;12502583;28;20048;-35
2024/02/28 06:17:46;;;;;;;44.53;21.17;;;0.20;99.90;;;;;;12505224;28;20057;-36
2024/02/28 06:23:48;;;;;;;52.60;23.20;;;0.40;99.90;;;;;;12505905;28;20046;-35
2024/02/28 06:29:50;;;;;;;50.25;23.70;;;0.50;99.90;;;;;;12507741;28;20041;-35
2024/02/28 06:35:52;;;;;;;51.45;23.20;;;0.50;99.90;;;;;;12493425;28;20168;-36
2024/02/28 06:41:54;;;;;;;48.28;23.83;;;0.60;99.90;;;;;;12491925;28;20085;-36
2024/02/28 06:47:56;;;;;;;55.45;25.02;;;0.60;99.90;;;;;;12505072;28;20050;-36
2024/02/28 06:53:58;;;;;;;53.05;25.80;;;0.70;99.90;;;;;;12508972;28;20052;-35
2024/02/28 07:00:00;;;;;;;55.40;26.80;;;0.80;99.90;;;;;;12515120;28;20072;-36
2024/02/28 07:06:02;;;;;;;52.40;25.65;;;0.80;99.90;;;;;;12527056;28;20171;-36
2024/02/28 07:12:05;;;;;;;51.97;25.92;;;0.90;99.90;;;;;;12504943;28;20053;-36
2024/02/28 07:18:07;;;;;;;53.60;29.60;;;1.10;99.90;;;;;;12505392;28;20656;-36
2024/02/28 07:24:09;;;;;;;55.05;28.70;;;1.20;99.90;;;;;;12512728;28;20041;-36
2024/02/28 07:30:12;;;;;;;33.55;20.50;;;1.30;99.90;;;;;;12499519;28;20102;-36
2024/02/28 07:36:14;;;;;;;31.83;20.70;;;1.40;99.90;;;;;;12519311;28;20080;-36
2024/02/28 07:42:16;;;;;;;38.10;23.88;;;1.50;99.90;;;;;;12507931;28;20054;-36
2024/02/28 07:48:18;;;;;;;42.10;23.95;;;1.30;99.90;;;;;;12489660;28;20048;-36
2024/02/28 07:54:19;;;;;;;58.97;28.08;;;1.10;99.90;;;;;;12517478;28;20521;-36
2024/02/28 08:00:22;;;;;;;60.60;29.27;;;1.10;99.90;;;;;;12517525;28;20145;-36
2024/02/28 08:06:24;;;;;;;64.95;29.77;;;1.20;99.90;;;;;;12499042;28;20049;-36
2024/02/28 08:12:26;;;;;;;67.05;32.53;;;1.50;99.90;;;;;;12515115;28;20049;-36
2024/02/28 08:18:28;;;;;;;57.47;31.20;;;1.80;99.90;;;;;;12522756;28;20517;-36
2024/02/28 08:24:30;;;;;;;60.35;30.30;;;1.70;99.90;;;;;;12506130;28;20041;-36
2024/02/28 08:30:34;;;;;;;61.95;35.55;;;2.00;99.90;;;;;;12514709;28;20088;-36
2024/02/28 08:36:36;;;;;;;69.22;34.05;;;2.10;99.90;;;;;;12511284;28;20056;-36
2024/02/28 08:42:38;;;;;;;68.05;37.13;;;2.00;99.90;;;;;;12495633;28;20128;-36
2024/02/28 08:48:40;;;;;;;59.05;36.22;;;1.80;99.90;;;;;;12508846;28;20061;-36
2024/02/28 08:54:42;;;;;;;61.97;33.85;;;2.00;99.90;;;;;;12525128;28;20191;-36
2024/02/28 09:00:44;;;;;;;70.45;35.75;;;2.30;99.90;;;;;;12504007;28;20424;-36
2024/02/28 09:06:46;;;;;;;65.82;37.25;;;2.40;99.90;;;;;;12521802;28;20056;-36
2024/02/28 09:12:49;;;;;;;63.63;37.00;;;2.40;99.90;;;;;;12509158;28;20052;-36
2024/02/28 09:18:51;;;;;;;69.90;37.50;;;2.50;99.90;;;;;;12504954;28;20048;-36
2024/02/28 09:24:53;;;;;;;65.97;35.63;;;2.70;99.90;;;;;;12520737;28;20061;-36
2024/02/28 09:30:55;;;;;;;58.80;34.65;;;2.90;99.90;;;;;;12535938;28;20059;-36
2024/02/28 09:36:57;;;;;;;63.70;35.85;;;2.80;99.90;;;;;;12504919;28;20049;-36
2024/02/28 09:43:03;;;;;;;70.80;34.97;;;2.80;99.90;;;;;;12517499;28;20048;-36
2024/02/28 09:49:05;;;;;;;67.80;33.65;;;2.80;99.90;;;;;;12508661;28;20054;-36
2024/02/28 09:55:08;;;;;;;72.35;39.55;;;3.10;99.90;;;;;;12520938;28;20048;-36
2024/02/28 10:01:13;;;;;;;73.72;35.47;;;3.10;99.90;;;;;;12509543;28;20080;-36
2024/02/28 10:07:15;;;;;;;62.88;33.58;;;3.20;99.90;;;;;;12499474;28;20136;-36
2024/02/28 10:13:17;;;;;;;70.53;35.22;;;3.30;99.90;;;;;;12485023;28;20418;-36
2024/02/28 10:19:19;;;;;;;74.30;35.58;;;3.40;99.90;;;;;;12520011;28;20067;-36
2024/02/28 10:25:21;;;;;;;67.07;33.67;;;3.50;99.90;;;;;;12514758;28;20528;-36
2024/02/28 10:31:23;;;;;;;64.07;32.17;;;3.40;99.90;;;;;;12504584;28;20143;-35
2024/02/28 10:37:26;;;;;;;60.33;30.00;;;3.50;99.90;;;;;;12515628;28;20167;-36
2024/02/28 10:43:29;;;;;;;66.13;33.00;;;3.80;99.90;;;;;;12503611;28;20053;-36
2024/02/28 10:49:31;;;;;;;59.88;32.58;;;4.10;99.90;;;;;;12497223;28;20041;-36
2024/02/28 10:55:37;;;;;;;58.67;35.22;;;4.00;99.90;;;;;;12515400;28;20057;-36
2024/02/28 11:01:42;;;;;;;55.53;33.33;;;3.80;99.90;;;;;;12518169;28;20050;-36
2024/02/28 11:07:44;;;;;;;68.75;35.85;;;4.10;99.90;;;;;;12511706;28;20041;-36
2024/02/28 11:13:56;;;;;;;60.83;31.27;;;4.30;99.90;;;;;;12521271;28;20136;-36
2024/02/28 11:19:58;;;;;;;56.47;32.00;;;4.70;99.90;;;;;;12483834;28;20053;-36
2024/02/28 11:26:00;;;;;;;56.22;34.00;;;4.90;99.90;;;;;;12502539;28;20409;-36
2024/02/28 11:32:02;;;;;;;57.67;32.80;;;4.90;99.90;;;;;;12516454;28;20519;-36
2024/02/28 11:38:06;;;;;;;57.72;31.27;;;5.00;99.90;;;;;;12509887;28;20064;-37
2024/02/28 11:44:09;;;;;;;49.87;28.53;;;5.10;99.90;;;;;;12512686;28;20051;-35
2024/02/28 11:50:11;;;;;;;50.75;28.35;;;4.90;99.90;;;;;;12493743;28;20045;-36
2024/02/28 11:56:17;;;;;;;51.15;26.02;;;5.30;99.90;;;;;;12524748;28;20064;-36
2024/02/28 12:02:25;;;;;;;52.50;27.08;;;5.30;99.90;;;;;;12521130;22;20061;-84
2024/02/28 12:08:27;;;;;;;49.47;26.00;;;4.90;99.90;;;;;;12464065;28;20050;-86
2024/02/28 12:14:40;;;;;;;47.40;27.13;;;4.90;99.90;;;;;;12475903;28;20414;-84
2024/02/28 12:20:42;;;;;;;47.90;26.40;;;4.90;99.90;;;;;;12448397;28;20052;-88
2024/02/28 12:26:44;;;;;;;52.95;29.63;;;5.10;99.90;;;;;;12435137;28;20490;-86
2024/02/28 12:32:45;;;;;;;48.47;28.05;;;5.10;99.90;;;;;;12464113;28;20198;-88
2024/02/28 12:38:48;;;;;;;44.95;27.65;;;5.00;99.90;;;;;;12456043;28;20045;-88
2024/02/28 12:44:50;;;;;;;46.00;27.55;;;4.90;99.90;;;;;;12489578;28;20049;-88
2024/02/28 12:50:52;;;;;;;50.30;30.98;;;5.00;99.90;;;;;;12436865;28;20081;-87
2024/02/28 12:56:54;;;;;;;53.50;33.90;;;5.20;99.90;;;;;;12434372;28;20061;-84
2024/02/28 13:02:56;;;;;;;51.60;36.05;;;5.10;99.90;;;;;;12455432;28;20077;-87
2024/02/28 13:08:58;;;;;;;53.65;33.15;;;4.80;99.90;;;;;;12421678;28;20056;-87
2024/02/28 13:15:00;;;;;;;52.95;34.08;;;4.80;99.90;;;;;;12417339;28;20088;-87
2024/02/28 13:21:04;;;;;;;52.35;36.45;;;5.00;99.90;;;;;;12437839;28;20060;-85
2024/02/28 13:27:07;;;;;;;54.50;37.70;;;4.60;99.90;;;;;;12473985;28;20046;-87
2024/02/28 13:33:09;;;;;;;52.33;32.80;;;4.60;99.90;;;;;;12415593;28;20318;-86
2024/02/28 13:39:11;;;;;;;47.95;32.03;;;4.70;99.90;;;;;;12410687;28;20058;-85
2024/02/28 13:45:13;;;;;;;46.50;31.85;;;4.90;99.90;;;;;;12415487;28;20346;-87
2024/02/28 13:51:15;;;;;;;50.58;35.90;;;5.20;99.90;;;;;;12446326;28;20088;-88
2024/02/28 13:57:17;;;;;;;56.83;38.97;;;5.50;99.90;;;;;;12428164;28;20374;-88
2024/02/28 14:03:20;;;;;;;58.95;44.08;;;5.60;99.90;;;;;;12432331;28;20054;-86
2024/02/28 14:09:22;;;;;;;53.67;39.13;;;5.70;99.90;;;;;;12436828;28;20370;-88
2024/02/28 14:15:25;;;;;;;52.22;41.03;;;5.80;99.90;;;;;;12442345;28;20060;-88
2024/02/28 14:21:29;;;;;;;57.35;46.65;;;5.70;99.90;;;;;;12449039;28;20087;-88
2024/02/28 14:27:33;;;;;;;63.78;47.70;;;5.50;99.90;;;;;;12445661;28;20049;-89
2024/02/28 14:33:38;;;;;;;63.17;52.20;;;5.70;99.90;;;;;;12447929;28;20046;-88
2024/02/28 14:39:40;;;;;;;53.88;48.05;;;5.50;99.90;;;;;;12462711;28;20058;-86
2024/02/28 14:45:41;;;;;;;61.47;48.95;;;5.70;99.90;;;;;;12487430;28;20049;-86
2024/02/28 14:51:48;;;;;;;59.75;48.40;;;5.60;99.90;;;;;;12478491;28;20470;-87
2024/02/28 14:57:51;;;;;;;64.63;52.72;;;5.40;99.90;;;;;;12451823;28;20030;-85
2024/02/28 15:03:53;;;;;;;71.40;57.28;;;5.40;99.90;;;;;;12488967;28;20568;-86
2024/02/28 15:09:57;;;;;;;75.82;55.28;;;5.40;99.90;;;;;;12519216;28;20093;-87
2024/02/28 15:15:59;;;;;;;80.40;59.42;;;5.30;99.90;;;;;;12487589;28;20289;-86
2024/02/28 15:22:01;;;;;;;67.60;53.25;;;5.30;99.90;;;;;;12484415;28;20062;-87
2024/02/28 15:28:04;;;;;;;62.90;48.58;;;5.30;99.90;;;;;;12477034;28;20041;-87
2024/02/28 15:34:06;;;;;;;56.50;42.20;;;5.30;99.90;;;;;;12498051;28;20077;-86
2024/02/28 15:40:09;;;;;;;59.15;46.45;;;5.10;99.90;;;;;;12491577;28;20049;-86
2024/02/28 15:46:11;;;;;;;59.50;44.97;;;5.00;99.90;;;;;;12488207;28;20045;-85
2024/02/28 15:52:13;;;;;;;60.88;44.42;;;4.90;99.90;;;;;;12452112;28;20056;-85
2024/02/28 15:58:15;;;;;;;56.60;42.75;;;4.80;99.90;;;;;;12479405;28;20093;-85
2024/02/28 16:04:17;;;;;;;58.08;45.20;;;4.80;99.90;;;;;;12464949;28;20058;-85
2024/02/28 16:10:20;;;;;;;54.72;45.50;;;4.80;99.90;;;;;;12463002;28;20058;-84
2024/02/28 16:16:22;;;;;;;55.90;42.85;;;4.60;99.90;;;;;;12468050;28;20053;-85
2024/02/28 16:22:24;;;;;;;56.60;44.80;;;4.50;99.90;;;;;;12459537;28;20045;-84
2024/02/28 16:28:26;;;;;;;62.45;45.55;;;4.50;99.90;;;;;;12447437;28;20171;-85
2024/02/28 16:34:30;;;;;;;58.67;42.93;;;4.40;99.90;;;;;;12452610;28;20060;-85
2024/02/28 16:40:31;;;;;;;56.47;42.58;;;4.40;99.90;;;;;;12484588;28;20061;-85
2024/02/28 16:46:33;;;;;;;56.45;42.80;;;4.30;99.90;;;;;;12437234;28;20042;-84
2024/02/28 16:52:36;;;;;;;58.20;44.03;;;4.20;99.90;;;;;;12449033;28;20050;-85
2024/02/28 16:58:42;;;;;;;56.80;42.22;;;4.20;99.90;;;;;;12473980;28;20050;-88
2024/02/28 17:04:44;;;;;;;56.38;41.55;;;4.10;99.90;;;;;;12472357;28;20060;-85
2024/02/28 17:10:46;;;;;;;54.95;41.60;;;4.00;99.90;;;;;;12468931;28;20052;-85
2024/02/28 17:16:49;;;;;;;48.70;35.70;;;3.80;99.90;;;;;;12460768;28;20812;-85
2024/02/28 17:22:51;;;;;;;56.65;36.38;;;3.90;99.90;;;;;;12454236;28;20513;-84
2024/02/28 17:28:54;;;;;;;58.38;37.75;;;3.90;99.90;;;;;;12462452;28;20046;-84
2024/02/28 17:34:58;;;;;;;54.25;37.40;;;4.00;99.90;;;;;;12428039;28;20453;-84
2024/02/28 17:41:00;;;;;;;51.78;36.45;;;4.00;99.90;;;;;;12415438;28;20081;-84
2024/02/28 17:47:02;;;;;;;49.63;37.85;;;3.90;99.90;;;;;;12428579;28;20053;-86
2024/02/28 17:53:04;;;;;;;57.38;39.15;;;3.80;99.90;;;;;;12448215;28;20055;-84
2024/02/28 17:59:07;;;;;;;59.90;39.45;;;3.60;99.90;;;;;;12450814;28;20045;-84
2024/02/28 18:05:09;;;;;;;51.75;37.95;;;3.50;99.90;;;;;;12402432;28;20066;-84
2024/02/28 18:11:11;;;;;;;54.05;36.90;;;3.50;99.90;;;;;;12428215;28;20046;-82
2024/02/28 18:17:13;;;;;;;50.35;33.92;;;3.50;99.90;;;;;;12433022;28;20054;-83
2024/02/28 18:23:14;;;;;;;55.53;37.47;;;3.40;99.90;;;;;;12444965;28;20049;-83
2024/02/28 18:29:30;;;;;;;57.58;36.45;;;3.30;99.90;;;;;;12437714;28;20050;-82
2024/02/28 18:35:32;;;;;;;57.90;36.95;;;3.30;99.90;;;;;;12454790;28;20057;-83
2024/02/28 18:41:34;;;;;;;54.78;32.83;;;3.30;99.90;;;;;;12425378;28;20058;-83
2024/02/28 18:47:38;;;;;;;55.20;31.92;;;3.50;99.90;;;;;;12419134;28;20046;-82
2024/02/28 18:53:42;;;;;;;54.83;32.08;;;3.60;99.90;;;;;;12410982;28;20047;-82
2024/02/28 18:59:44;;;;;;;48.72;32.05;;;3.80;99.90;;;;;;12429448;28;20050;-82
2024/02/28 19:05:46;;;;;;;55.10;35.08;;;4.00;99.90;;;;;;12422582;28;20568;-82
2024/02/28 19:11:48;;;;;;;58.08;37.50;;;4.20;99.90;;;;;;12421418;28;20037;-81
2024/02/28 19:17:50;;;;;;;49.78;36.22;;;4.60;99.90;;;;;;12417070;28;20564;-82
2024/02/28 19:23:52;;;;;;;54.50;40.28;;;4.70;99.90;;;;;;12389815;28;20077;-86
2024/02/28 19:29:54;;;;;;;58.53;39.38;;;4.70;99.90;;;;;;12402809;28;20198;-84
2024/02/28 19:35:56;;;;;;;56.45;37.28;;;4.80;99.90;;;;;;12399826;28;20422;-83
2024/02/28 19:41:58;;;;;;;59.10;40.15;;;4.90;99.90;;;;;;12410222;28;20466;-83
2024/02/28 19:48:00;;;;;;;60.47;40.25;;;4.80;99.90;;;;;;12401122;28;20133;-83
2024/02/28 19:54:03;;;;;;;63.35;40.55;;;4.70;99.90;;;;;;12400333;28;20089;-86
2024/02/28 20:00:06;;;;;;;67.15;40.47;;;4.50;99.90;;;;;;12411381;28;20077;-83
2024/02/28 20:06:12;;;;;;;61.90;45.72;;;4.30;99.90;;;;;;12415775;28;20427;-83
2024/02/28 20:12:15;;;;;;;63.00;45.30;;;4.00;99.90;;;;;;12429075;28;20410;-84
2024/02/28 20:18:17;;;;;;;58.75;40.72;;;3.80;99.90;;;;;;12429623;28;20045;-83
2024/02/28 20:24:20;;;;;;;53.38;36.17;;;3.80;99.90;;;;;;12417385;28;20050;-84
2024/02/28 20:30:21;;;;;;;57.00;37.95;;;3.60;99.90;;;;;;12417990;28;20085;-83
2024/02/28 20:36:23;;;;;;;60.97;41.15;;;3.60;99.90;;;;;;12416726;28;20054;-86
2024/02/28 20:42:25;;;;;;;54.88;32.92;;;3.40;99.90;;;;;;12396179;28;20438;-86
2024/02/28 20:48:27;;;;;;;57.38;33.10;;;3.70;99.90;;;;;;12408547;28;20145;-86
2024/02/28 20:54:29;;;;;;;53.55;31.77;;;3.90;99.90;;;;;;12418433;28;20137;-86
2024/02/28 21:00:31;;;;;;;49.95;31.67;;;3.90;99.90;;;;;;12415549;28;20549;-86
2024/02/28 21:06:33;;;;;;;49.45;33.28;;;4.10;99.90;;;;;;12446169;28;20144;-87
2024/02/28 21:12:36;;;;;;;50.92;36.13;;;4.20;99.90;;;;;;12453541;28;20054;-86
2024/02/28 21:18:38;;;;;;;57.20;40.60;;;4.10;99.90;;;;;;12454419;28;20062;-87
2024/02/28 21:24:40;;;;;;;57.65;43.78;;;4.00;99.90;;;;;;12443827;28;20046;-86
2024/02/28 21:30:43;;;;;;;59.78;45.17;;;3.80;99.90;;;;;;12460002;28;20195;-87
2024/02/28 21:36:45;;;;;;;59.42;42.05;;;3.60;99.90;;;;;;12450134;28;20057;-85
2024/02/28 21:42:47;;;;;;;45.40;32.47;;;3.20;99.90;;;;;;12471748;28;20049;-87
2024/02/28 21:48:49;;;;;;;41.28;28.88;;;3.30;99.90;;;;;;12512586;28;20037;-85
2024/02/28 21:55:04;;;;;;;38.10;29.33;;;3.50;99.90;;;;;;12535629;28;20097;-85
2024/02/28 22:01:07;;;;;;;44.43;30.27;;;3.70;99.90;;;;;;12502474;28;20053;-85
2024/02/28 22:07:09;;;;;;;35.50;30.55;;;3.90;99.90;;;;;;12503966;28;20053;-87
2024/02/28 22:13:11;;;;;;;33.58;29.70;;;4.20;99.90;;;;;;12524085;28;20049;-86
2024/02/28 22:19:14;;;;;;;35.08;31.30;;;4.30;99.90;;;;;;12495440;28;20093;-86
2024/02/28 22:25:17;;;;;;;35.13;30.75;;;4.40;99.90;;;;;;12496478;28;20049;-84
2024/02/28 22:31:18;;;;;;;34.63;31.17;;;4.50;99.90;;;;;;12477396;28;20037;-86
2024/02/28 22:37:20;;;;;;;37.72;34.33;;;4.60;99.90;;;;;;12482181;28;20057;-86
2024/02/28 22:43:22;;;;;;;32.78;29.88;;;4.60;99.90;;;;;;12471343;28;20045;-87
2024/02/28 22:49:24;;;;;;;31.15;28.38;;;4.60;99.90;;;;;;12445195;28;20069;-87
2024/02/28 22:55:26;;;;;;;34.35;31.15;;;4.80;99.90;;;;;;12462729;28;20468;-85
2024/02/28 23:01:28;;;;;;;27.70;25.40;;;4.80;99.90;;;;;;12443807;28;20050;-85
2024/02/28 23:07:30;;;;;;;30.75;27.90;;;5.00;99.90;;;;;;12454848;28;20136;-86
2024/02/28 23:13:32;;;;;;;25.15;22.90;;;5.00;99.90;;;;;;12451350;28;20081;-86
2024/02/28 23:19:36;;;;;;;25.38;22.98;;;5.10;99.90;;;;;;12435756;28;20187;-83
2024/02/28 23:25:38;;;;;;;;;;;5.20;72.40;;;;;;12454615;28;20062;-85
2024/02/28 23:31:40;;;;;;;22.50;20.52;;;5.30;39.40;;;;;;12440493;28;19979;-83
2024/02/28 23:37:42;;;;;;;22.55;20.55;;;5.40;25.40;;;;;;12452489;28;20053;-85
2024/02/28 23:43:44;;;;;;;26.25;23.88;;;5.40;1.00;;;;;;12443625;28;20165;-86
2024/02/28 23:49:46;;;;;;;26.52;24.20;;;5.40;35.70;;;;;;12440494;28;20050;-85
2024/02/28 23:55:48;;;;;;;26.67;24.27;;;5.30;42.10;;;;;;12446344;28;20060;-85
